Accueil
METAR-TAF:

METAR-TAF

Aéroports :

Aéroport international Norman-Manley de Kingston

Kingston, Jamaïque

latitude: 17-56N, longitude: 076-47W, altitude: 3 m

Observation

Le bulletin a été fait il y a 42 minutes, à 01:00 UTC
Vent 16 kt de est/sud-est
Température 27°C
Humidité 58%
Pression 1016 hPa
Visibilité 10 km ou plus
Quelques nuages à une hauteur de 2200 ft

METAR: MKJP 220100Z 11016KT 9999 FEW022 27/18 Q1016

Heure: 20:42 (01:42 UTC)

Prévision

Le bulletin a été fait il y a 2 heures et 27 minutes, à 23:15 UTC
Prévision valable du 22 à 00 UTC au 22 à 24 UTC
Vent 16 kt de est/sud-est
Visibilité 10 km ou plus
Nuages épars à une hauteur de 1800 ft
Nuages épars à une hauteur de 3200 ft
Evoluant progressivement
du 22 à 13 UTC au 22 à 15 UTC
Vent 26 kt de est/sud-est
Quelques nuages à une hauteur de 2200 ft
Nuages épars à une hauteur de 3200 ft

TAF: MKJP 212315Z 2200/2224 12016KT 9999 SCT018 SCT032 BECMG 2213/2215 12026KT FEW022 SCT032

Observations et prévisions météorologiques de plus de 4000 aéroports (messages METAR et TAF).

Les stations disponibles sont représentées par des disques jaunes et rouges sur la carte.

Passer la souris dessus pour voir le nom de la station.

Cliquer dessus pour voir les observations et prévisions météorologiques.

Pour changer de carte: cliquez sur les boutons verts avec une croix noire pour zoomer, sur le bouton vert avec un tiret pour effectuer un zoom arrière, ou sur les flèches vertes pour les cartes adjacentes.


METAR-TAF: